createdAt,value
2023-02-14T00:01:56.669Z,1
2023-02-14T00:04:00.379Z,0.9
2023-02-14T00:06:04.038Z,0.9
2023-02-14T00:08:07.806Z,0.9
2023-02-14T00:12:15.094Z,0.9
2023-02-14T00:14:22.073Z,1
2023-02-14T00:16:25.908Z,1
2023-02-14T00:18:29.433Z,1
2023-02-14T00:22:36.804Z,0.8
2023-02-14T00:24:40.482Z,0.8
2023-02-14T00:26:44.194Z,0.8
2023-02-14T00:28:52.794Z,0.8
2023-02-14T00:30:54.865Z,0.7
2023-02-14T00:32:58.487Z,0.8
2023-02-14T00:37:14.672Z,0.6
2023-02-14T00:39:18.352Z,0.6
2023-02-14T00:43:34.556Z,0.5
2023-02-14T00:54:56.345Z,0.5
2023-02-14T01:02:16.441Z,0.6
2023-02-14T01:06:26.400Z,0.5
2023-02-14T01:08:30.155Z,0.5
2023-02-14T01:10:33.761Z,0.6
2023-02-14T01:15:48.213Z,0.6
2023-02-14T01:17:57.195Z,0.7
2023-02-14T01:20:00.842Z,0.6
2023-02-14T01:22:07.182Z,0.7
2023-02-14T01:24:11.040Z,0.7
2023-02-14T01:26:14.521Z,0.6
2023-02-14T01:28:20.863Z,0.7
2023-02-14T01:32:28.217Z,0.6
2023-02-14T01:34:34.566Z,0.5
2023-02-14T01:49:05.547Z,0.4
2023-02-14T01:51:09.212Z,0.4
2023-02-14T01:53:15.540Z,0.3
2023-02-14T01:55:19.234Z,0.4
2023-02-14T01:57:22.688Z,0.3
2023-02-14T01:59:28.994Z,0.3
2023-02-14T02:01:32.770Z,0.3
2023-02-14T02:03:36.333Z,0.3
2023-02-14T02:05:42.670Z,0.3
2023-02-14T02:07:46.322Z,0.3
2023-02-14T02:09:50.005Z,0.4
2023-02-14T02:11:56.335Z,0.4
2023-02-14T02:14:00.005Z,0.4
2023-02-14T02:16:03.678Z,0.4
2023-02-14T02:18:09.995Z,0.4
2023-02-14T02:20:13.675Z,0.4
2023-02-14T02:22:17.337Z,0.4
2023-02-14T02:24:23.661Z,0.4
2023-02-14T02:28:30.998Z,0.4
2023-02-14T02:30:37.466Z,0.3
2023-02-14T02:32:41.245Z,0.3
2023-02-14T02:34:44.665Z,0.3
2023-02-14T02:36:50.984Z,0.3
2023-02-14T02:38:54.645Z,0.3
2023-02-14T02:40:58.731Z,0.3
2023-02-14T02:43:04.682Z,0.3
2023-02-14T02:45:08.308Z,0.3
2023-02-14T02:47:11.996Z,0.3
2023-02-14T02:49:18.325Z,0.4
2023-02-14T02:51:21.977Z,0.3
2023-02-14T02:53:25.655Z,0.3
2023-02-14T02:55:31.944Z,0.3
2023-02-14T02:57:35.652Z,0.3
2023-02-14T02:59:39.298Z,0.4
2023-02-14T03:01:45.641Z,0.3
2023-02-14T03:03:49.301Z,0.4
2023-02-14T03:05:52.952Z,0.4
2023-02-14T03:07:59.295Z,0.4
2023-02-14T03:10:02.980Z,0.4
2023-02-14T03:12:06.604Z,0.4
2023-02-14T03:14:12.921Z,0.4
2023-02-14T03:16:16.706Z,0.5
2023-02-14T03:18:20.271Z,0.5
2023-02-14T03:20:26.588Z,0.5
2023-02-14T03:22:30.288Z,0.5
2023-02-14T03:24:33.939Z,0.5
2023-02-14T03:26:40.284Z,0.5
2023-02-14T03:28:43.951Z,0.5
2023-02-14T03:30:47.705Z,0.5
2023-02-14T03:32:53.940Z,0.6
2023-02-14T03:34:57.608Z,0.6
2023-02-14T03:37:01.304Z,0.6
2023-02-14T03:39:07.619Z,0.5
2023-02-14T03:43:14.961Z,0.6
2023-02-14T03:49:28.641Z,0.6
2023-02-14T03:51:34.952Z,0.5
2023-02-14T03:53:38.679Z,0.6
2023-02-14T04:01:56.018Z,0.5
2023-02-14T04:06:05.983Z,0.5
2023-02-14T04:08:09.671Z,0.5
2023-02-14T04:10:15.999Z,0.5
2023-02-14T04:12:26.501Z,0.5
2023-02-14T04:14:23.349Z,0.5
2023-02-14T04:16:29.665Z,0.5
2023-02-14T04:18:33.358Z,0.5
2023-02-14T04:20:37.044Z,0.5
2023-02-14T04:22:43.362Z,0.5
2023-02-14T04:24:47.026Z,0.4
2023-02-14T04:26:50.709Z,0.4
2023-02-14T04:28:57.026Z,0.4
2023-02-14T04:31:01.193Z,0.4
2023-02-14T04:33:04.362Z,0.4
2023-02-14T04:35:10.701Z,0.3
2023-02-14T04:39:18.026Z,0.3
2023-02-14T04:41:24.368Z,0.3
2023-02-14T04:43:28.018Z,0.3
2023-02-14T04:45:31.699Z,0.3
2023-02-14T04:52:51.806Z,0.2
2023-02-14T04:54:55.440Z,0.2
2023-02-14T04:57:01.775Z,0.2
2023-02-14T04:59:05.418Z,0.2
2023-02-14T05:01:09.151Z,0.2
2023-02-14T05:03:15.400Z,0.2
2023-02-14T05:05:19.456Z,0.2
2023-02-14T05:07:23.152Z,0.3
2023-02-14T05:09:29.479Z,0.3
2023-02-14T05:11:33.124Z,0.3
2023-02-14T05:13:36.794Z,0.2
2023-02-14T05:15:43.126Z,0.2
2023-02-14T05:17:46.787Z,0.2
2023-02-14T05:19:50.438Z,0.2
2023-02-14T05:21:56.742Z,0.1
2023-02-14T05:24:00.409Z,0.1
2023-02-14T05:26:04.077Z,0.1
2023-02-14T05:28:10.397Z,0.1
2023-02-14T05:30:14.189Z,0.1
2023-02-14T05:32:17.794Z,0.1
2023-02-14T05:34:24.040Z,-0.1
2023-02-14T05:36:27.710Z,0
2023-02-14T05:38:31.364Z,-0.1
2023-02-14T05:40:37.668Z,-0.1
2023-02-14T05:42:41.350Z,-0.1
2023-02-14T05:44:44.993Z,-0.2
2023-02-14T05:46:51.302Z,-0.2
2023-02-14T05:48:54.962Z,-0.1
2023-02-14T05:50:59.042Z,-0.2
2023-02-14T06:02:24.533Z,-0.3
2023-02-14T06:08:38.081Z,-0.3
2023-02-14T06:10:41.732Z,-0.4
2023-02-14T06:12:45.372Z,-0.4
2023-02-14T06:14:51.643Z,-0.4
2023-02-14T06:16:55.343Z,-0.4
2023-02-14T06:23:08.869Z,-0.6
2023-02-14T06:25:12.517Z,-0.6
2023-02-14T06:27:18.793Z,-0.6
2023-02-14T06:29:22.421Z,-0.6
2023-02-14T06:31:26.209Z,-0.6
2023-02-14T06:33:32.335Z,-0.6
2023-02-14T06:35:35.981Z,-0.7
2023-02-14T06:37:39.614Z,-0.8
2023-02-14T06:39:45.876Z,-0.6
2023-02-14T06:41:49.529Z,-0.7
2023-02-14T06:43:53.152Z,-0.7
2023-02-14T06:45:59.453Z,-0.7
2023-02-14T06:48:03.055Z,-0.8
2023-02-14T06:50:06.692Z,-0.8
2023-02-14T06:52:12.952Z,-0.8
2023-02-14T06:54:16.598Z,-0.8
2023-02-14T06:56:20.208Z,-0.8
2023-02-14T06:58:26.493Z,-0.8
2023-02-14T07:00:30.113Z,-0.9
2023-02-14T07:02:33.770Z,-0.9
2023-02-14T07:04:39.989Z,-0.8
2023-02-14T07:06:43.637Z,-0.8
2023-02-14T07:08:47.234Z,-0.8
2023-02-14T07:13:03.361Z,-0.8
2023-02-14T07:17:13.166Z,-0.6
2023-02-14T07:23:26.641Z,-0.5
2023-02-14T07:25:30.285Z,-0.4
2023-02-14T07:27:33.896Z,-0.4
2023-02-14T07:29:40.152Z,-0.4
2023-02-14T07:31:43.945Z,-0.2
2023-02-14T07:33:47.386Z,-0.2
2023-02-14T07:42:07.216Z,0.1
2023-02-14T07:46:14.511Z,0.2
2023-02-14T07:50:24.373Z,0.3
2023-02-14T07:54:34.449Z,0.5
2023-02-14T07:56:38.103Z,0.6
2023-02-14T07:58:41.753Z,0.7
2023-02-14T08:04:55.388Z,1
2023-02-14T08:07:01.634Z,1
2023-02-14T08:09:05.293Z,1.1
2023-02-14T08:13:21.359Z,1.3
2023-02-14T08:15:25.065Z,1.4
2023-02-14T08:17:28.701Z,1.5
2023-02-14T08:19:34.997Z,1.6
2023-02-14T08:21:38.669Z,1.7
2023-02-14T08:23:42.302Z,1.8
2023-02-14T08:25:48.606Z,1.9
2023-02-14T08:29:56.008Z,2.1
2023-02-14T08:32:02.443Z,2.2
2023-02-14T08:34:05.915Z,2.3
2023-02-14T08:36:09.580Z,2.4
2023-02-14T08:38:15.905Z,2.5
2023-02-14T08:42:23.277Z,2.7
2023-02-14T09:01:04.599Z,3.9
2023-02-14T09:05:14.541Z,4
2023-02-14T09:07:18.288Z,4.1
2023-02-14T09:09:37.228Z,4.2
2023-02-14T09:11:40.922Z,4.3
2023-02-14T09:13:44.624Z,4.4
2023-02-14T09:15:51.643Z,4.5
2023-02-14T09:17:55.433Z,4.5
2023-02-14T09:19:59.118Z,4.7
2023-02-14T09:22:02.848Z,4.7
2023-02-14T09:24:06.558Z,4.9
2023-02-14T09:26:10.311Z,4.9
2023-02-14T09:28:14.030Z,5
2023-02-14T09:30:21.206Z,5.2
2023-02-14T09:32:24.845Z,5.2
2023-02-14T09:34:28.571Z,5.3
2023-02-14T09:36:32.285Z,5.5
2023-02-14T09:38:36.065Z,5.6
2023-02-14T09:40:39.800Z,5.8
2023-02-14T09:42:43.547Z,5.9
2023-02-14T09:44:50.581Z,6.1
2023-02-14T09:46:54.376Z,6.1
2023-02-14T09:48:58.131Z,6.3
2023-02-14T09:51:02.088Z,6.4
2023-02-14T09:53:05.638Z,6.4
2023-02-14T09:57:13.181Z,6.6
2023-02-14T10:01:24.033Z,6.8
2023-02-14T10:06:34.986Z,7
2023-02-14T10:08:38.789Z,7.1
2023-02-14T10:10:42.555Z,7.3
2023-02-14T10:12:49.618Z,7.7
2023-02-14T10:14:53.420Z,7.8
2023-02-14T10:16:57.313Z,7.9
2023-02-14T10:19:01.015Z,8
2023-02-14T10:21:04.797Z,8
2023-02-14T10:23:08.602Z,8.2
2023-02-14T10:27:19.469Z,8.6
2023-02-14T10:29:23.255Z,8.7
2023-02-14T10:31:27.372Z,8.8
2023-02-14T10:33:30.868Z,8.9
2023-02-14T10:35:34.658Z,9
2023-02-14T10:39:42.306Z,9.5
2023-02-14T10:41:49.374Z,9.9
2023-02-14T10:43:53.198Z,9.9
2023-02-14T10:45:57.053Z,10
2023-02-14T10:48:00.823Z,10
2023-02-14T10:50:04.636Z,10.2
2023-02-14T10:52:08.475Z,10.1
2023-02-14T10:54:12.330Z,10
2023-02-14T10:56:19.399Z,10.4
2023-02-14T10:58:23.280Z,10.5
2023-02-14T11:01:30.747Z,10.7
2023-02-14T11:03:34.570Z,10.7
2023-02-14T11:05:38.359Z,11
2023-02-14T11:09:49.285Z,11.2
2023-02-14T11:13:56.964Z,11.4
2023-02-14T11:24:19.427Z,13.5
2023-02-14T11:26:23.296Z,13.5
2023-02-14T11:28:27.079Z,13.8
2023-02-14T11:30:31.029Z,14
2023-02-14T11:32:34.777Z,14.3
2023-02-14T11:34:38.632Z,14.3
2023-02-14T11:36:42.471Z,13.3
2023-02-14T11:38:50.219Z,12.1
2023-02-14T11:40:54.068Z,12.1
2023-02-14T11:43:12.792Z,12.1
2023-02-14T11:45:01.749Z,11.9
2023-02-14T11:47:06.853Z,11.8
2023-02-14T11:49:09.439Z,11.8
2023-02-14T11:51:13.296Z,11.9
2023-02-14T11:53:20.413Z,12
2023-02-14T11:58:31.705Z,11.8
2023-02-14T12:17:09.624Z,15.9
2023-02-14T12:19:13.423Z,17.3
2023-02-14T12:21:20.540Z,17.6
2023-02-14T12:25:28.230Z,17.3
2023-02-14T12:27:34.184Z,17.5
2023-02-14T12:31:39.780Z,15.5
2023-02-14T12:35:50.643Z,15.9
2023-02-14T12:38:03.945Z,16
2023-02-14T12:42:02.170Z,17
2023-02-14T12:44:06.011Z,17.9
2023-02-14T12:46:09.916Z,18.9
2023-02-14T12:50:20.790Z,17.4
2023-02-14T12:52:24.611Z,17.7
2023-02-14T12:54:28.455Z,18.7
2023-02-14T13:01:01.546Z,18.8
2023-02-14T13:07:16.081Z,17.6
2023-02-14T13:09:19.881Z,17.7
2023-02-14T13:11:23.738Z,17.2
2023-02-14T13:19:42.417Z,16.6
2023-02-14T13:27:57.788Z,14.7
2023-02-14T13:30:01.687Z,14.3
2023-02-14T13:34:12.596Z,13.6
2023-02-14T13:38:20.269Z,13.9
2023-02-14T13:44:31.816Z,16
2023-02-14T13:46:38.979Z,15.6
2023-02-14T13:48:42.773Z,15.3
2023-02-14T13:53:54.012Z,14.5
2023-02-14T13:55:57.855Z,14.5
2023-02-14T13:58:01.709Z,14.1
2023-02-14T14:00:08.838Z,13.9
2023-02-14T14:02:12.659Z,13.8
2023-02-14T14:08:24.173Z,13.7
2023-02-14T14:10:28.043Z,13.6
2023-02-14T14:12:31.868Z,13.5
2023-02-14T14:14:38.989Z,13.4
2023-02-14T14:16:42.855Z,13.3
2023-02-14T14:18:46.678Z,13.3
2023-02-14T14:20:50.495Z,13
2023-02-14T14:22:54.340Z,12.9
2023-02-14T14:24:58.152Z,13.1
2023-02-14T14:27:02.119Z,13.4
2023-02-14T14:29:09.143Z,13.5
2023-02-14T14:31:13.048Z,13.6
2023-02-14T14:35:20.698Z,13
2023-02-14T14:37:24.572Z,12.8
2023-02-14T14:41:32.246Z,12.5
2023-02-14T14:43:39.377Z,12.6
2023-02-14T14:45:43.275Z,12.5
2023-02-14T14:47:47.060Z,12.6
2023-02-14T14:50:54.499Z,12.5
2023-02-14T14:52:58.315Z,12.3
2023-02-14T14:55:02.207Z,12.2
2023-02-14T14:57:10.915Z,12.3
2023-02-14T14:59:14.746Z,12.4
2023-02-14T15:01:18.616Z,12.3
2023-02-14T15:03:22.429Z,12.2
2023-02-14T15:05:26.256Z,12.2
2023-02-14T15:07:30.146Z,12.2
2023-02-14T15:09:33.952Z,12
2023-02-14T15:11:41.109Z,12.2
2023-02-14T15:13:44.916Z,12.1
2023-02-14T15:15:48.754Z,12
2023-02-14T15:17:52.597Z,12
2023-02-14T15:22:00.302Z,12.1
2023-02-14T15:24:04.109Z,12.2
2023-02-14T15:26:11.244Z,12.2
2023-02-14T15:28:15.067Z,12.1
2023-02-14T15:32:22.754Z,11.8
2023-02-14T15:34:26.579Z,11.7
2023-02-14T15:36:30.406Z,11.6
2023-02-14T15:38:34.276Z,11.5
2023-02-14T15:40:41.388Z,11.6
2023-02-14T15:42:45.258Z,11.5
2023-02-14T15:44:49.081Z,11.4
2023-02-14T15:52:04.186Z,11.4
2023-02-14T15:54:11.294Z,11.4
2023-02-14T16:00:22.822Z,11.1
2023-02-14T16:02:26.683Z,11.2
2023-02-14T16:04:30.529Z,11.3
2023-02-14T16:06:34.351Z,11.1
2023-02-14T16:10:45.314Z,11.1
2023-02-14T16:12:49.161Z,10.8
2023-02-14T16:14:52.993Z,10.6
2023-02-14T16:16:56.854Z,10.5
2023-02-14T16:19:00.674Z,10.4
2023-02-14T16:21:04.529Z,10.3
2023-02-14T16:23:11.659Z,10.2
2023-02-14T16:25:15.494Z,10.1
2023-02-14T16:27:19.317Z,10
2023-02-14T16:29:23.996Z,9.9
2023-02-14T16:31:27.946Z,9.8
2023-02-14T16:33:31.658Z,9.8
2023-02-14T16:35:35.490Z,9.7
2023-02-14T16:37:42.635Z,9.5
2023-02-14T16:39:46.511Z,9.5
2023-02-14T16:41:50.311Z,9.5
2023-02-14T16:44:15.219Z,9.3
2023-02-14T16:46:19.171Z,9.3
2023-02-14T16:48:22.909Z,9.2
2023-02-14T16:52:33.848Z,9
2023-02-14T16:54:37.675Z,8.9
2023-02-14T16:56:41.516Z,8.8
2023-02-14T16:58:45.344Z,8.8
2023-02-14T17:00:49.204Z,8.6
2023-02-14T17:02:53.098Z,8.6
2023-02-14T17:05:00.143Z,8.5
2023-02-14T17:07:04.000Z,8.4
2023-02-14T17:13:15.466Z,8.1
2023-02-14T17:15:19.285Z,8.1
2023-02-14T17:17:23.129Z,8
2023-02-14T17:21:34.026Z,7.6
2023-02-14T17:27:45.482Z,7.3
2023-02-14T17:31:53.244Z,7.2
2023-02-14T17:36:04.010Z,6.9
2023-02-14T17:39:11.355Z,6.8
2023-02-14T17:41:15.166Z,6.7
2023-02-14T17:47:29.896Z,6.5
2023-02-14T17:49:33.756Z,6.5
2023-02-14T17:51:37.520Z,6.5
2023-02-14T17:53:41.321Z,6.6
2023-02-14T17:55:45.147Z,6.5
2023-02-14T17:57:48.946Z,6.5
2023-02-14T18:01:59.868Z,6.2
2023-02-14T18:04:03.661Z,6.1
2023-02-14T18:12:18.885Z,6.2
2023-02-14T18:14:22.689Z,6.2
2023-02-14T18:16:29.809Z,6.1
2023-02-14T18:18:33.554Z,6
2023-02-14T18:20:37.353Z,5.9
2023-02-14T18:22:41.150Z,5.8
2023-02-14T18:24:44.941Z,5.7
2023-02-14T18:26:48.728Z,5.6
2023-02-14T18:30:59.974Z,5.6
2023-02-14T18:33:03.392Z,5.6
2023-02-14T18:35:07.170Z,5.6
2023-02-14T18:36:10.713Z,5.5
2023-02-14T18:38:14.510Z,5.4
2023-02-14T18:44:29.144Z,5.3
2023-02-14T18:46:32.950Z,5.3
2023-02-14T18:48:36.732Z,5.3
2023-02-14T18:50:40.532Z,5.2
2023-02-14T18:52:44.294Z,5.1
2023-02-14T18:54:48.068Z,5.1
2023-02-14T18:56:51.872Z,5
2023-02-14T18:58:58.905Z,5
2023-02-14T19:01:03.119Z,5
2023-02-14T19:03:06.464Z,5
2023-02-14T19:05:10.276Z,4.9
2023-02-14T19:07:14.028Z,4.8
2023-02-14T19:09:17.818Z,4.8
2023-02-14T19:11:21.582Z,4.7
2023-02-14T19:13:28.643Z,4.6
2023-02-14T19:15:32.431Z,4.6
2023-02-14T19:17:36.237Z,4.6
2023-02-14T19:19:39.965Z,4.6
2023-02-14T19:21:43.731Z,4.6
2023-02-14T19:23:47.502Z,4.6
2023-02-14T19:25:51.257Z,4.7
2023-02-14T19:27:58.323Z,4.6
2023-02-14T19:30:02.119Z,4.6
2023-02-14T19:32:05.931Z,4.5
2023-02-14T19:33:09.384Z,4.5
2023-02-14T19:35:13.120Z,4.5
2023-02-14T19:37:16.911Z,4.5
2023-02-14T19:39:20.663Z,4.3
2023-02-14T19:41:27.691Z,4.5
2023-02-14T19:43:31.465Z,4.5
2023-02-14T19:45:35.250Z,4.4
2023-02-14T19:47:46.322Z,4.3
2023-02-14T19:49:42.725Z,4.3
2023-02-14T19:51:46.500Z,4.2
2023-02-14T19:53:50.266Z,4.1
2023-02-14T19:55:57.294Z,4
2023-02-14T19:58:01.072Z,4
2023-02-14T20:00:04.810Z,4
2023-02-14T20:02:08.595Z,3.9
2023-02-14T20:04:12.324Z,3.9
2023-02-14T20:06:16.091Z,3.8
2023-02-14T20:08:19.843Z,3.8
2023-02-14T20:10:26.867Z,3.8
2023-02-14T20:12:30.616Z,3.8
2023-02-14T20:14:46.873Z,3.8
2023-02-14T20:16:38.180Z,3.7
2023-02-14T20:22:49.378Z,3.4
2023-02-14T20:24:56.397Z,3.4
2023-02-14T20:27:00.163Z,3.5
2023-02-14T20:29:03.951Z,3.4
2023-02-14T20:31:29.041Z,3.4
2023-02-14T20:35:36.383Z,3.4
2023-02-14T20:37:43.407Z,3.4
2023-02-14T20:39:47.138Z,3.3
2023-02-14T20:41:50.915Z,3.2
2023-02-14T20:43:54.639Z,3.2
2023-02-14T20:48:02.109Z,3.1
2023-02-14T20:50:05.842Z,3
2023-02-14T21:02:33.157Z,3
2023-02-14T21:04:36.909Z,2.9
2023-02-14T21:06:43.912Z,2.7
2023-02-14T21:08:47.653Z,2.7
2023-02-14T21:10:51.351Z,2.7
2023-02-14T21:12:55.081Z,2.7
2023-02-14T21:14:58.816Z,2.7
2023-02-14T21:17:02.551Z,2.6
2023-02-14T21:19:06.261Z,2.6
2023-02-14T21:21:13.259Z,2.4
2023-02-14T21:26:24.217Z,2.5
2023-02-14T21:28:27.928Z,2.5
2023-02-14T21:32:35.377Z,2.4
2023-02-14T21:40:53.505Z,2.5
2023-02-14T21:42:57.249Z,2.5
2023-02-14T21:47:04.661Z,2.4
2023-02-14T21:51:15.406Z,2.3
2023-02-14T21:53:19.128Z,2.4
2023-02-14T22:01:34.072Z,2.2
2023-02-14T22:03:40.968Z,2.1
2023-02-14T22:05:44.705Z,2.1
2023-02-14T22:07:48.385Z,1.9
2023-02-14T22:09:52.120Z,1.9
2023-02-14T22:11:55.820Z,1.9
2023-02-14T22:13:59.520Z,1.9
2023-02-14T22:16:03.276Z,1.8
2023-02-14T22:18:10.228Z,1.7
2023-02-14T22:20:13.954Z,1.7
2023-02-14T22:25:24.861Z,1.7
2023-02-14T22:27:28.564Z,1.7
2023-02-14T22:31:39.352Z,1.8
2023-02-14T22:35:46.662Z,1.7
2023-02-14T22:39:54.073Z,1.8
2023-02-14T22:41:57.784Z,1.7
2023-02-14T22:44:01.491Z,1.6
2023-02-14T22:46:08.443Z,1.5
2023-02-14T22:48:12.151Z,1.5
2023-02-14T22:50:15.895Z,1.4
2023-02-14T22:52:19.528Z,1.5
2023-02-14T22:54:23.247Z,1.4
2023-02-14T22:56:26.949Z,1.4
2023-02-14T22:58:30.629Z,1.3
2023-02-14T23:00:37.587Z,1.3
2023-02-14T23:02:41.347Z,1.3
2023-02-14T23:04:44.998Z,1.4
2023-02-14T23:06:48.673Z,1.4
2023-02-14T23:08:52.362Z,1.3
2023-02-14T23:10:56.058Z,1.3
2023-02-14T23:12:59.740Z,1.2
2023-02-14T23:15:06.720Z,1.1
2023-02-14T23:17:10.392Z,1.1
2023-02-14T23:19:14.062Z,1
2023-02-14T23:24:24.942Z,1.1
2023-02-14T23:26:28.648Z,1
2023-02-14T23:28:35.686Z,1
2023-02-14T23:30:39.303Z,1.1
2023-02-14T23:32:42.986Z,1
2023-02-14T23:34:46.671Z,0.9
2023-02-14T23:36:50.355Z,0.9
2023-02-14T23:38:54.027Z,0.9
2023-02-14T23:43:04.658Z,0.8
2023-02-14T23:45:08.327Z,0.9
2023-02-14T23:49:15.682Z,0.7
2023-02-14T23:55:26.731Z,0.7
2023-02-14T23:59:37.323Z,0.6
